Huvudsida
METAR-TAF:

METAR-TAF

Flygplatser :

São José do Rio Preto Airport

São José do Rio Preto, São Paulo, Brasilien

latitud: 20-48-58S, longitud: 049-24-17W, höjd: 543 m

Aktuellt väderrapport

Denna rapport gjordes för 50 minuter sedan, klockan 20:00 UTC
Vind 12 kt från ost/nordost
Temperatur 29°C
Fuktighet 52%
Tryck 1009 hPa
Sikt 10 km eller mer
Spridda moln på en höjd av 3500 ft

METAR: SBSR 162000Z 06012KT 9999 SCT035 29/18 Q1009

Tid: 17:50 (20:50 UTC)


TAF: saknas

Aktuella väderrapporter och prognoser från 4000 flygplatser (METAR- och TAF-rapporter).

De tillgängliga stationerna syns som gula och röda prickar på kartan.

För musen över prickarna för att se namnen på stationerna.

Klicka sedan för att få väderrapporter och prognoser.

För att ändra kartan: Klicka på de gröna knapparna med ett svart kors på för att zooma in; den gröna knappen med ett streck på för att zooma ut; eller på de gröna pilarna för angränsande kartor.


METAR-TAF: